sensor_id;sensor_type;location;lat;lon;timestamp;P1;durP1;ratioP1;P2;durP2;ratioP2
48026;SDS011;50714;49.208;5.364;2024-01-06T00:02:57;5.82;;;4.03;;
48026;SDS011;50714;49.208;5.364;2024-01-06T00:12:57;24.48;;;13.60;;
48026;SDS011;50714;49.208;5.364;2024-01-06T00:22:57;22.95;;;13.85;;
48026;SDS011;50714;49.208;5.364;2024-01-06T00:32:58;9.85;;;6.75;;
48026;SDS011;50714;49.208;5.364;2024-01-06T00:42:59;4.93;;;3.95;;
48026;SDS011;50714;49.208;5.364;2024-01-06T00:52:59;6.15;;;3.33;;
48026;SDS011;50714;49.208;5.364;2024-01-06T01:02:59;4.68;;;2.85;;
48026;SDS011;50714;49.208;5.364;2024-01-06T01:13:00;5.07;;;2.97;;
48026;SDS011;50714;49.208;5.364;2024-01-06T01:23:01;3.78;;;2.90;;
48026;SDS011;50714;49.208;5.364;2024-01-06T01:33:02;5.47;;;3.83;;
48026;SDS011;50714;49.208;5.364;2024-01-06T01:43:02;3.97;;;3.00;;
48026;SDS011;50714;49.208;5.364;2024-01-06T01:53:02;4.57;;;2.95;;
48026;SDS011;50714;49.208;5.364;2024-01-06T02:03:04;4.10;;;2.88;;
48026;SDS011;50714;49.208;5.364;2024-01-06T02:13:09;5.13;;;3.20;;
48026;SDS011;50714;49.208;5.364;2024-01-06T02:23:10;4.60;;;3.60;;
48026;SDS011;50714;49.208;5.364;2024-01-06T02:33:11;5.05;;;3.65;;
48026;SDS011;50714;49.208;5.364;2024-01-06T02:43:11;4.60;;;3.30;;
48026;SDS011;50714;49.208;5.364;2024-01-06T02:53:11;5.05;;;3.75;;
48026;SDS011;50714;49.208;5.364;2024-01-06T03:03:12;4.75;;;3.40;;
48026;SDS011;50714;49.208;5.364;2024-01-06T03:13:12;4.35;;;2.95;;
48026;SDS011;50714;49.208;5.364;2024-01-06T03:23:13;4.35;;;3.13;;
48026;SDS011;50714;49.208;5.364;2024-01-06T03:33:13;4.82;;;3.30;;
48026;SDS011;50714;49.208;5.364;2024-01-06T03:43:13;3.88;;;3.30;;
48026;SDS011;50714;49.208;5.364;2024-01-06T03:53:14;4.75;;;3.10;;
48026;SDS011;50714;49.208;5.364;2024-01-06T04:03:14;3.85;;;3.00;;
48026;SDS011;50714;49.208;5.364;2024-01-06T04:13:15;3.35;;;2.67;;
48026;SDS011;50714;49.208;5.364;2024-01-06T04:23:15;4.53;;;2.97;;
48026;SDS011;50714;49.208;5.364;2024-01-06T04:33:15;11.60;;;8.10;;
48026;SDS011;50714;49.208;5.364;2024-01-06T04:43:16;4.95;;;3.40;;
48026;SDS011;50714;49.208;5.364;2024-01-06T04:53:16;3.92;;;2.85;;
48026;SDS011;50714;49.208;5.364;2024-01-06T05:03:16;5.28;;;3.70;;
48026;SDS011;50714;49.208;5.364;2024-01-06T05:13:17;5.28;;;4.03;;
48026;SDS011;50714;49.208;5.364;2024-01-06T05:23:17;4.82;;;2.92;;
48026;SDS011;50714;49.208;5.364;2024-01-06T05:33:17;4.38;;;3.33;;
48026;SDS011;50714;49.208;5.364;2024-01-06T05:43:18;5.07;;;3.10;;
48026;SDS011;50714;49.208;5.364;2024-01-06T05:53:18;6.28;;;3.05;;
48026;SDS011;50714;49.208;5.364;2024-01-06T06:03:18;4.97;;;2.92;;
48026;SDS011;50714;49.208;5.364;2024-01-06T06:13:19;3.25;;;2.85;;
48026;SDS011;50714;49.208;5.364;2024-01-06T06:23:19;2.88;;;2.50;;
48026;SDS011;50714;49.208;5.364;2024-01-06T06:33:20;3.78;;;2.33;;
48026;SDS011;50714;49.208;5.364;2024-01-06T06:43:20;4.32;;;2.20;;
48026;SDS011;50714;49.208;5.364;2024-01-06T06:53:20;2.95;;;2.25;;
48026;SDS011;50714;49.208;5.364;2024-01-06T07:03:21;2.92;;;2.20;;
48026;SDS011;50714;49.208;5.364;2024-01-06T07:13:21;3.13;;;2.50;;
48026;SDS011;50714;49.208;5.364;2024-01-06T07:23:21;5.05;;;3.10;;
48026;SDS011;50714;49.208;5.364;2024-01-06T07:33:22;11.32;;;6.53;;
48026;SDS011;50714;49.208;5.364;2024-01-06T07:43:22;8.98;;;5.43;;
48026;SDS011;50714;49.208;5.364;2024-01-06T07:53:22;9.35;;;5.28;;
48026;SDS011;50714;49.208;5.364;2024-01-06T08:03:23;5.78;;;4.05;;
48026;SDS011;50714;49.208;5.364;2024-01-06T08:13:25;4.50;;;3.22;;
48026;SDS011;50714;49.208;5.364;2024-01-06T08:23:25;3.65;;;2.50;;
48026;SDS011;50714;49.208;5.364;2024-01-06T08:33:27;4.25;;;2.45;;
48026;SDS011;50714;49.208;5.364;2024-01-06T08:43:27;3.83;;;2.72;;
48026;SDS011;50714;49.208;5.364;2024-01-06T08:53:27;4.97;;;2.80;;
48026;SDS011;50714;49.208;5.364;2024-01-06T09:03:28;2.35;;;2.00;;
48026;SDS011;50714;49.208;5.364;2024-01-06T09:13:28;3.17;;;2.22;;
48026;SDS011;50714;49.208;5.364;2024-01-06T09:23:28;4.07;;;2.50;;
48026;SDS011;50714;49.208;5.364;2024-01-06T09:33:29;2.75;;;2.00;;
48026;SDS011;50714;49.208;5.364;2024-01-06T09:43:29;5.05;;;3.75;;
48026;SDS011;50714;49.208;5.364;2024-01-06T09:53:34;5.35;;;3.55;;
48026;SDS011;50714;49.208;5.364;2024-01-06T10:03:37;3.60;;;2.50;;
48026;SDS011;50714;49.208;5.364;2024-01-06T10:13:38;3.60;;;2.97;;
48026;SDS011;50714;49.208;5.364;2024-01-06T10:23:38;3.65;;;2.63;;
48026;SDS011;50714;49.208;5.364;2024-01-06T10:33:38;3.80;;;2.80;;
48026;SDS011;50714;49.208;5.364;2024-01-06T10:43:39;5.60;;;3.63;;
48026;SDS011;50714;49.208;5.364;2024-01-06T10:53:43;2.65;;;2.17;;
48026;SDS011;50714;49.208;5.364;2024-01-06T11:03:43;1.50;;;1.40;;
48026;SDS011;50714;49.208;5.364;2024-01-06T11:13:45;1.55;;;1.45;;
48026;SDS011;50714;49.208;5.364;2024-01-06T11:34:15;1.80;;;1.52;;
48026;SDS011;50714;49.208;5.364;2024-01-06T11:44:22;1.92;;;1.60;;
48026;SDS011;50714;49.208;5.364;2024-01-06T11:54:23;1.73;;;1.60;;
48026;SDS011;50714;49.208;5.364;2024-01-06T12:04:24;2.33;;;1.70;;
48026;SDS011;50714;49.208;5.364;2024-01-06T12:14:27;1.92;;;1.73;;
48026;SDS011;50714;49.208;5.364;2024-01-06T12:24:27;1.77;;;1.67;;
48026;SDS011;50714;49.208;5.364;2024-01-06T12:34:28;3.17;;;2.25;;
48026;SDS011;50714;49.208;5.364;2024-01-06T12:44:28;5.28;;;3.45;;
48026;SDS011;50714;49.208;5.364;2024-01-06T12:54:29;4.82;;;3.10;;
48026;SDS011;50714;49.208;5.364;2024-01-06T13:04:29;4.55;;;3.60;;
48026;SDS011;50714;49.208;5.364;2024-01-06T13:14:29;6.53;;;3.97;;
48026;SDS011;50714;49.208;5.364;2024-01-06T13:24:31;5.57;;;4.15;;
48026;SDS011;50714;49.208;5.364;2024-01-06T13:34:31;5.45;;;4.20;;
48026;SDS011;50714;49.208;5.364;2024-01-06T13:44:32;4.57;;;3.90;;
48026;SDS011;50714;49.208;5.364;2024-01-06T13:54:34;4.30;;;3.45;;
48026;SDS011;50714;49.208;5.364;2024-01-06T14:04:35;3.75;;;3.15;;
48026;SDS011;50714;49.208;5.364;2024-01-06T14:14:35;4.75;;;4.10;;
48026;SDS011;50714;49.208;5.364;2024-01-06T14:24:35;5.50;;;3.70;;
48026;SDS011;50714;49.208;5.364;2024-01-06T14:34:36;4.32;;;3.58;;
48026;SDS011;50714;49.208;5.364;2024-01-06T14:44:36;2.90;;;2.60;;
48026;SDS011;50714;49.208;5.364;2024-01-06T14:54:37;2.45;;;2.10;;
48026;SDS011;50714;49.208;5.364;2024-01-06T15:04:37;2.63;;;2.20;;
48026;SDS011;50714;49.208;5.364;2024-01-06T15:14:38;2.60;;;2.20;;
48026;SDS011;50714;49.208;5.364;2024-01-06T15:24:39;3.05;;;2.28;;
48026;SDS011;50714;49.208;5.364;2024-01-06T15:34:39;2.23;;;2.03;;
48026;SDS011;50714;49.208;5.364;2024-01-06T15:44:40;2.35;;;2.03;;
48026;SDS011;50714;49.208;5.364;2024-01-06T15:54:40;2.58;;;2.10;;
48026;SDS011;50714;49.208;5.364;2024-01-06T16:04:40;2.10;;;1.80;;
48026;SDS011;50714;49.208;5.364;2024-01-06T16:14:41;4.60;;;3.70;;
48026;SDS011;50714;49.208;5.364;2024-01-06T16:24:41;2.40;;;2.05;;
48026;SDS011;50714;49.208;5.364;2024-01-06T16:34:41;3.20;;;2.67;;
48026;SDS011;50714;49.208;5.364;2024-01-06T16:44:42;5.63;;;5.03;;
48026;SDS011;50714;49.208;5.364;2024-01-06T16:54:42;5.75;;;5.20;;
48026;SDS011;50714;49.208;5.364;2024-01-06T17:04:42;4.85;;;4.32;;
48026;SDS011;50714;49.208;5.364;2024-01-06T17:14:43;3.45;;;2.80;;
48026;SDS011;50714;49.208;5.364;2024-01-06T17:24:43;7.32;;;5.82;;
48026;SDS011;50714;49.208;5.364;2024-01-06T17:34:43;4.15;;;3.05;;
48026;SDS011;50714;49.208;5.364;2024-01-06T17:44:44;2.85;;;2.40;;
48026;SDS011;50714;49.208;5.364;2024-01-06T17:54:46;3.65;;;2.53;;
48026;SDS011;50714;49.208;5.364;2024-01-06T18:04:46;2.50;;;2.05;;
48026;SDS011;50714;49.208;5.364;2024-01-06T18:14:46;1.85;;;1.63;;
48026;SDS011;50714;49.208;5.364;2024-01-06T18:24:47;2.67;;;2.28;;
48026;SDS011;50714;49.208;5.364;2024-01-06T18:34:47;4.45;;;3.47;;
48026;SDS011;50714;49.208;5.364;2024-01-06T18:44:47;3.95;;;2.80;;
48026;SDS011;50714;49.208;5.364;2024-01-06T18:54:48;3.97;;;3.00;;
48026;SDS011;50714;49.208;5.364;2024-01-06T19:04:48;3.88;;;3.20;;
48026;SDS011;50714;49.208;5.364;2024-01-06T19:14:49;5.40;;;4.45;;
48026;SDS011;50714;49.208;5.364;2024-01-06T19:24:49;6.78;;;6.05;;
48026;SDS011;50714;49.208;5.364;2024-01-06T19:34:49;6.35;;;5.70;;
48026;SDS011;50714;49.208;5.364;2024-01-06T19:44:53;4.32;;;3.35;;
48026;SDS011;50714;49.208;5.364;2024-01-06T19:54:55;4.47;;;3.65;;
48026;SDS011;50714;49.208;5.364;2024-01-06T20:04:55;4.00;;;3.13;;
48026;SDS011;50714;49.208;5.364;2024-01-06T20:14:55;2.92;;;2.63;;
48026;SDS011;50714;49.208;5.364;2024-01-06T20:24:57;4.10;;;3.10;;
48026;SDS011;50714;49.208;5.364;2024-01-06T20:34:57;4.30;;;3.40;;
48026;SDS011;50714;49.208;5.364;2024-01-06T20:44:59;3.40;;;2.67;;
48026;SDS011;50714;49.208;5.364;2024-01-06T20:54:59;4.50;;;3.28;;
48026;SDS011;50714;49.208;5.364;2024-01-06T21:05:01;5.38;;;4.28;;
48026;SDS011;50714;49.208;5.364;2024-01-06T21:15:04;5.57;;;4.60;;
48026;SDS011;50714;49.208;5.364;2024-01-06T21:25:04;5.43;;;4.40;;
48026;SDS011;50714;49.208;5.364;2024-01-06T21:35:06;5.05;;;4.25;;
48026;SDS011;50714;49.208;5.364;2024-01-06T21:45:06;6.35;;;5.63;;
48026;SDS011;50714;49.208;5.364;2024-01-06T21:55:07;7.30;;;5.90;;
48026;SDS011;50714;49.208;5.364;2024-01-06T22:05:08;7.40;;;5.60;;
48026;SDS011;50714;49.208;5.364;2024-01-06T22:15:09;6.65;;;5.15;;
48026;SDS011;50714;49.208;5.364;2024-01-06T22:25:10;6.50;;;5.32;;
48026;SDS011;50714;49.208;5.364;2024-01-06T22:35:10;7.32;;;6.32;;
48026;SDS011;50714;49.208;5.364;2024-01-06T22:45:11;8.30;;;7.25;;
48026;SDS011;50714;49.208;5.364;2024-01-06T22:55:11;7.53;;;6.72;;
48026;SDS011;50714;49.208;5.364;2024-01-06T23:05:11;8.38;;;7.00;;
48026;SDS011;50714;49.208;5.364;2024-01-06T23:15:12;6.97;;;5.85;;
48026;SDS011;50714;49.208;5.364;2024-01-06T23:25:13;6.80;;;5.68;;
48026;SDS011;50714;49.208;5.364;2024-01-06T23:35:14;6.35;;;4.97;;
48026;SDS011;50714;49.208;5.364;2024-01-06T23:45:15;6.15;;;5.50;;
48026;SDS011;50714;49.208;5.364;2024-01-06T23:55:15;7.03;;;5.45;;
